Time;durP1;ratioP1;P1;durP2;ratioP2;P2;SDS_P1;SDS_P2;PMS_P1;PMS_P2;Temp;Humidity;BMP_temperature;BMP_pressure;BME280_temperature;BME280_humidity;BME280_pressure;Samples;Min_cycle;Max_cycle;Signal;HPM_P1;HPM_P2
2023/01/03 00:01:07;;;;;;;16.77;12.40;;;7.30;99.90;;;;;;5133052;27;20565;-69
2023/01/03 00:03:33;;;;;;;19.47;12.23;;;7.30;99.90;;;;;;5146631;27;20634;-69
2023/01/03 00:05:59;;;;;;;16.67;11.77;;;7.20;99.90;;;;;;5131423;27;20202;-70
2023/01/03 00:08:26;;;;;;;18.50;12.35;;;7.20;99.90;;;;;;5093754;27;1366985;-70
2023/01/03 00:10:51;;;;;;;17.63;11.27;;;7.10;99.90;;;;;;5021954;28;20211;-69
2023/01/03 00:13:17;;;;;;;15.83;12.13;;;7.10;99.90;;;;;;5031577;28;20694;-68
2023/01/03 00:15:43;;;;;;;20.53;12.70;;;7.10;99.90;;;;;;5031088;28;20176;-68
2023/01/03 00:18:09;;;;;;;16.77;11.87;;;7.10;99.90;;;;;;5031050;28;20210;-69
2023/01/03 00:20:34;;;;;;;18.60;12.80;;;7.00;99.90;;;;;;5031381;28;20215;-69
2023/01/03 00:23:01;;;;;;;19.90;11.97;;;7.00;99.90;;;;;;5030993;28;20190;-69
2023/01/03 00:25:27;;;;;;;18.40;12.67;;;7.10;99.90;;;;;;5030756;28;20182;-69
2023/01/03 00:27:53;;;;;;;17.30;12.80;;;7.00;99.90;;;;;;5030795;28;20179;-69
2023/01/03 00:30:20;;;;;;;20.63;12.40;;;7.00;99.90;;;;;;5030664;28;20200;-69
2023/01/03 00:32:45;;;;;;;19.57;13.37;;;7.00;99.90;;;;;;5031039;28;20198;-69
2023/01/03 00:35:11;;;;;;;21.10;13.00;;;7.00;99.90;;;;;;5030835;28;20175;-69
2023/01/03 00:37:37;;;;;;;18.07;12.23;;;6.90;99.90;;;;;;5012908;28;20650;-69
2023/01/03 00:40:03;;;;;;;19.57;12.07;;;6.90;99.90;;;;;;5012636;28;20241;-69
2023/01/03 00:43:27;;;;;;;18.00;12.80;;;6.90;99.90;;;;;;5030557;28;20168;-69
2023/01/03 00:45:15;;;;;;;20.00;12.33;;;6.90;99.90;;;;;;5030378;28;20603;-69
2023/01/03 00:47:40;;;;;;;21.13;13.00;;;6.80;99.90;;;;;;5030649;28;20180;-69
2023/01/03 00:50:06;;;;;;;21.63;13.60;;;6.80;99.90;;;;;;5030299;28;20191;-68
2023/01/03 00:52:32;;;;;;;21.70;12.97;;;6.70;99.90;;;;;;5012791;28;20183;-69
2023/01/03 00:54:57;;;;;;;19.30;13.10;;;6.70;99.90;;;;;;5012649;28;20179;-69
2023/01/03 00:57:23;;;;;;;23.10;13.77;;;6.60;99.90;;;;;;5030478;28;20250;-68
2023/01/03 00:59:49;;;;;;;20.20;14.03;;;6.60;99.90;;;;;;5030229;28;20691;-69
2023/01/03 01:02:15;;;;;;;19.37;13.83;;;6.60;99.90;;;;;;5012044;28;20189;-69
2023/01/03 01:04:40;;;;;;;19.67;13.37;;;6.60;99.90;;;;;;5030742;28;20221;-69
2023/01/03 01:07:06;;;;;;;18.50;13.43;;;6.50;99.90;;;;;;5030365;28;20648;-69
2023/01/03 01:09:35;;;;;;;23.07;12.23;;;6.60;99.90;;;;;;5008461;28;20641;-70
2023/01/03 01:12:01;;;;;;;21.27;12.47;;;6.60;99.90;;;;;;5003246;28;20187;-69
2023/01/03 01:14:29;;;;;;;19.30;12.47;;;6.50;99.90;;;;;;5016964;28;20180;-69
2023/01/03 01:17:00;;;;;;;16.23;11.70;;;6.50;99.90;;;;;;5017190;28;20180;-69
2023/01/03 01:19:29;;;;;;;18.37;12.83;;;6.50;99.90;;;;;;4999088;28;20215;-69
2023/01/03 01:21:55;;;;;;;18.17;11.83;;;6.50;99.90;;;;;;5016788;28;20702;-69
2023/01/03 01:24:21;;;;;;;20.87;12.57;;;6.50;99.90;;;;;;5016547;28;20171;-69
2023/01/03 01:26:47;;;;;;;17.50;11.43;;;6.50;99.90;;;;;;5016610;28;20672;-69
2023/01/03 01:29:14;;;;;;;20.23;12.97;;;6.40;99.90;;;;;;5016487;28;20175;-69
2023/01/03 01:31:41;;;;;;;20.87;12.27;;;6.40;99.90;;;;;;4999118;28;20195;-69
2023/01/03 01:34:07;;;;;;;16.33;10.83;;;6.30;99.90;;;;;;5016501;28;20682;-69
2023/01/03 01:36:40;;;;;;;16.93;10.73;;;6.30;99.90;;;;;;5016275;28;20176;-68
2023/01/03 01:39:15;;;;;;;22.50;12.17;;;6.30;99.90;;;;;;5016637;28;20194;-69
2023/01/03 01:44:54;;;;;;;15.73;10.77;;;6.30;99.90;;;;;;5016707;28;20252;-69
2023/01/03 01:47:40;;;;;;;14.87;10.43;;;6.20;99.90;;;;;;4998773;28;20171;-69
2023/01/03 01:50:06;;;;;;;13.97;10.30;;;6.30;99.90;;;;;;4998902;28;20207;-69
2023/01/03 01:52:35;;;;;;;22.20;10.70;;;6.30;99.90;;;;;;5016354;28;20222;-69
2023/01/03 01:55:15;;;;;;;14.50;10.47;;;6.30;99.90;;;;;;5016091;28;20248;-70
2023/01/03 01:57:42;;;;;;;16.53;11.13;;;6.30;99.90;;;;;;4998926;28;20172;-69
2023/01/03 02:00:09;;;;;;;17.90;11.87;;;6.30;99.90;;;;;;5015910;28;20211;-70
2023/01/03 02:02:34;;;;;;;19.57;11.17;;;6.30;99.90;;;;;;5015951;28;20172;-68
2023/01/03 02:05:05;;;;;;;15.63;11.07;;;6.30;99.90;;;;;;4998355;28;20183;-69
2023/01/03 02:07:31;;;;;;;19.50;11.10;;;6.30;99.90;;;;;;5016728;28;20153;-69
2023/01/03 02:09:58;;;;;;;19.63;12.07;;;6.30;99.90;;;;;;5027961;28;20206;-69
2023/01/03 02:15:38;;;;;;;20.13;11.27;;;6.40;99.90;;;;;;5095856;28;20229;-68
2023/01/03 02:18:34;;;;;;;17.03;10.77;;;6.40;99.90;;;;;;5095895;28;20170;-69
2023/01/03 02:21:21;;;;;;;14.77;9.80;;;6.50;99.90;;;;;;5095656;28;20201;-68
2023/01/03 02:24:06;;;;;;;16.43;9.73;;;6.50;99.90;;;;;;5095147;28;20177;-69
2023/01/03 02:26:37;;;;;;;19.17;11.37;;;6.50;99.90;;;;;;5095994;28;20161;-68
2023/01/03 02:29:24;;;;;;;13.00;9.77;;;6.50;99.90;;;;;;5095545;28;20165;-69
2023/01/03 02:32:11;;;;;;;18.27;10.97;;;6.50;99.90;;;;;;5095565;28;20239;-68
2023/01/03 02:34:52;;;;;;;12.17;10.23;;;6.50;99.90;;;;;;5095809;28;20145;-69
2023/01/03 02:37:44;;;;;;;15.90;9.60;;;6.50;99.90;;;;;;5095506;28;20630;-69
2023/01/03 02:40:57;;;;;;;12.97;10.27;;;6.40;99.90;;;;;;5095075;28;20626;-69
2023/01/03 02:43:42;;;;;;;11.73;8.40;;;6.40;99.90;;;;;;5013282;28;20263;-68
2023/01/03 02:46:16;;;;;;;10.70;8.37;;;6.40;99.90;;;;;;4996643;28;20176;-68
2023/01/03 02:49:12;;;;;;;15.03;7.90;;;6.40;99.90;;;;;;5071698;28;20216;-68
2023/01/03 02:51:44;;;;;;;10.13;8.07;;;6.40;99.90;;;;;;5095332;28;20158;-67
2023/01/03 02:54:14;;;;;;;9.60;7.77;;;6.40;99.90;;;;;;5094829;28;20162;-68
2023/01/03 02:56:51;;;;;;;10.63;7.30;;;6.40;99.90;;;;;;5094734;28;20225;-68
2023/01/03 02:59:21;;;;;;;20.70;7.90;;;6.30;99.90;;;;;;5094752;28;20672;-68
2023/01/03 03:01:50;;;;;;;11.43;8.10;;;6.30;99.90;;;;;;5094695;28;20189;-67
2023/01/03 03:04:17;;;;;;;13.57;8.03;;;6.30;99.90;;;;;;5076742;28;20181;-67
2023/01/03 03:07:26;;;;;;;15.07;7.83;;;6.30;99.90;;;;;;5094977;28;20154;-68
2023/01/03 03:15:34;;;;;;;10.33;7.93;;;6.30;99.90;;;;;;5038152;28;20194;-68
2023/01/03 03:18:06;;;;;;;14.83;8.17;;;6.30;99.90;;;;;;5055149;28;20220;-67
2023/01/03 03:26:13;;;;;;;14.57;8.50;;;6.20;99.90;;;;;;5055690;28;20166;-68
2023/01/03 03:28:43;;;;;;;10.47;8.17;;;6.20;99.90;;;;;;5055674;28;20150;-67
2023/01/03 03:31:31;;;;;;;14.20;8.80;;;6.30;99.90;;;;;;5053128;28;20240;-68
2023/01/03 03:34:05;;;;;;;15.30;9.43;;;6.30;99.90;;;;;;5054355;28;20171;-68
2023/01/03 03:36:42;;;;;;;15.13;9.07;;;6.30;99.90;;;;;;5054379;28;20169;-68
2023/01/03 03:44:59;;;;;;;13.53;8.53;;;6.30;99.90;;;;;;5053854;28;20276;-68
2023/01/03 03:45:11;;;;;;;14.77;9.40;;;6.30;99.90;;;;;;5054197;28;20212;-69
2023/01/03 03:47:50;;;;;;;12.63;8.60;;;6.30;99.90;;;;;;5054108;28;20167;-68
2023/01/03 03:50:34;;;;;;;17.67;9.93;;;6.30;99.90;;;;;;5053825;28;20190;-67
2023/01/03 03:53:04;;;;;;;12.87;9.20;;;6.30;99.90;;;;;;5052323;28;20643;-68
2023/01/03 03:55:46;;;;;;;11.77;9.13;;;6.30;99.90;;;;;;5053699;28;20220;-68
2023/01/03 03:58:22;;;;;;;12.07;8.60;;;6.30;99.90;;;;;;5052355;28;20614;-68
2023/01/03 04:00:50;;;;;;;12.97;9.67;;;6.20;99.90;;;;;;5053796;28;20214;-68
2023/01/03 04:03:18;;;;;;;12.17;9.20;;;6.20;99.90;;;;;;5053898;28;20643;-68
2023/01/03 04:05:53;;;;;;;13.53;10.13;;;6.20;99.90;;;;;;5052267;28;20590;-68
2023/01/03 04:08:19;;;;;;;16.93;9.60;;;6.10;99.90;;;;;;5035685;28;20174;-68
2023/01/03 04:10:45;;;;;;;15.50;9.07;;;6.00;99.90;;;;;;5053243;28;20209;-67
2023/01/03 04:13:10;;;;;;;16.03;10.00;;;6.00;99.90;;;;;;5053908;28;20185;-68
2023/01/03 04:15:36;;;;;;;13.80;9.57;;;5.90;99.90;;;;;;5053538;28;20209;-67
2023/01/03 04:18:02;;;;;;;13.43;8.83;;;5.80;99.90;;;;;;5053920;28;20234;-67
2023/01/03 04:20:28;;;;;;;13.17;9.03;;;5.80;99.90;;;;;;5035382;28;20214;-68
2023/01/03 04:22:55;;;;;;;15.33;9.47;;;5.80;99.90;;;;;;5052410;28;20198;-68
2023/01/03 04:25:20;;;;;;;13.33;9.50;;;5.80;99.90;;;;;;5035492;28;20666;-68
2023/01/03 04:27:46;;;;;;;19.60;9.23;;;5.70;99.90;;;;;;5035471;28;20175;-68
2023/01/03 04:30:12;;;;;;;13.10;9.67;;;5.70;99.90;;;;;;5053306;28;20230;-68
2023/01/03 04:32:38;;;;;;;12.03;10.07;;;5.70;99.90;;;;;;5053284;28;20630;-68
2023/01/03 04:35:04;;;;;;;11.57;9.23;;;5.60;99.90;;;;;;5053433;28;20181;-68
2023/01/03 04:37:30;;;;;;;18.53;10.70;;;5.60;99.90;;;;;;5053298;28;20170;-68
2023/01/03 04:39:56;;;;;;;12.40;9.20;;;5.60;99.90;;;;;;5052833;28;20289;-68
2023/01/03 04:45:07;;;;;;;11.10;9.20;;;5.50;99.90;;;;;;5053177;28;20228;-68
2023/01/03 04:47:32;;;;;;;10.37;9.03;;;5.50;99.90;;;;;;5056127;28;20175;-68
2023/01/03 04:49:58;;;;;;;14.03;8.97;;;5.50;99.90;;;;;;5039110;28;20583;-68
2023/01/03 04:52:24;;;;;;;13.97;9.20;;;5.50;99.90;;;;;;5057519;28;20541;-68
2023/01/03 04:54:50;;;;;;;14.77;9.30;;;5.50;99.90;;;;;;5057068;28;20179;-68
2023/01/03 04:57:15;;;;;;;12.50;9.27;;;5.40;99.90;;;;;;5057110;28;20224;-69
2023/01/03 04:59:41;;;;;;;12.13;8.40;;;5.40;99.90;;;;;;5038793;28;20253;-69
2023/01/03 05:02:07;;;;;;;16.20;9.47;;;5.40;99.90;;;;;;5038814;28;20218;-69
2023/01/03 05:04:33;;;;;;;11.90;9.13;;;5.30;99.90;;;;;;5039019;28;20753;-69
2023/01/03 05:06:59;;;;;;;11.63;8.97;;;5.30;99.90;;;;;;5057040;28;20175;-71
2023/01/03 05:09:27;;;;;;;15.10;10.27;;;5.20;99.90;;;;;;5043122;28;20279;-68
2023/01/03 05:11:54;;;;;;;13.53;9.13;;;5.20;99.90;;;;;;5056700;28;20175;-68
2023/01/03 05:14:19;;;;;;;12.73;9.40;;;5.20;99.90;;;;;;5055202;28;20581;-69
2023/01/03 05:16:45;;;;;;;13.60;9.83;;;5.20;99.90;;;;;;5055245;28;20186;-68
2023/01/03 05:19:11;;;;;;;10.90;8.83;;;5.20;99.90;;;;;;5056655;28;20189;-68
2023/01/03 05:27:06;;;;;;;11.53;9.07;;;5.30;99.90;;;;;;5057302;28;20201;-68
2023/01/03 05:29:34;;;;;;;12.83;9.77;;;5.30;99.90;;;;;;5056492;28;20210;-68
2023/01/03 05:32:00;;;;;;;12.87;10.13;;;5.20;99.90;;;;;;5071806;28;20220;-68
2023/01/03 05:34:26;;;;;;;12.87;9.47;;;5.10;99.90;;;;;;5056617;28;20178;-68
2023/01/03 05:36:51;;;;;;;12.50;9.57;;;5.20;99.90;;;;;;5055924;28;20254;-68
2023/01/03 05:39:17;;;;;;;11.27;9.43;;;5.20;99.90;;;;;;5055967;28;20202;-69
2023/01/03 05:41:58;;;;;;;12.90;10.20;;;5.10;99.90;;;;;;5056042;28;20653;-68
2023/01/03 05:44:24;;;;;;;15.73;9.97;;;5.10;99.90;;;;;;5056867;28;20159;-68
2023/01/03 05:46:50;;;;;;;12.30;9.60;;;5.10;99.90;;;;;;5056354;28;20166;-68
2023/01/03 05:49:16;;;;;;;12.23;9.70;;;5.20;99.90;;;;;;5055897;28;20174;-69
2023/01/03 05:51:42;;;;;;;16.63;11.30;;;5.20;99.90;;;;;;5054693;28;20186;-68
2023/01/03 05:54:11;;;;;;;17.33;11.50;;;5.20;99.90;;;;;;5055860;28;20224;-68
2023/01/03 05:56:37;;;;;;;18.70;12.60;;;5.30;99.90;;;;;;5056206;28;20183;-68
2023/01/03 05:59:03;;;;;;;24.43;13.23;;;5.30;99.90;;;;;;5054388;28;20186;-69
2023/01/03 06:01:28;;;;;;;20.33;11.67;;;5.30;99.90;;;;;;5055674;28;20190;-68
2023/01/03 06:03:54;;;;;;;25.60;14.03;;;5.30;99.90;;;;;;5055994;28;20192;-68
2023/01/03 06:06:20;;;;;;;18.90;11.77;;;5.40;99.90;;;;;;5071254;28;20174;-68
2023/01/03 06:08:46;;;;;;;24.43;12.23;;;5.30;99.90;;;;;;5071143;28;20186;-69
2023/01/03 06:11:13;;;;;;;19.03;11.07;;;5.30;99.90;;;;;;5054149;28;20697;-68
2023/01/03 06:13:39;;;;;;;18.77;11.03;;;5.30;99.90;;;;;;5037970;28;20175;-68
2023/01/03 06:18:52;;;;;;;18.73;10.93;;;5.30;99.90;;;;;;5056023;28;20190;-69
2023/01/03 06:21:19;;;;;;;14.23;10.67;;;5.20;99.90;;;;;;5055057;28;20276;-68
2023/01/03 06:23:46;;;;;;;15.90;10.80;;;5.20;99.90;;;;;;5055249;28;20174;-68
2023/01/03 06:26:13;;;;;;;16.33;10.83;;;5.10;99.90;;;;;;5054963;28;20208;-68
2023/01/03 06:28:39;;;;;;;16.03;10.50;;;5.00;99.90;;;;;;5054992;28;20167;-68
2023/01/03 06:31:05;;;;;;;15.87;10.40;;;4.90;99.90;;;;;;5055154;28;20209;-69
2023/01/03 06:33:31;;;;;;;15.50;11.20;;;4.90;99.90;;;;;;5037162;28;20584;-68
2023/01/03 06:36:02;;;;;;;13.80;10.27;;;4.80;99.90;;;;;;5054951;28;20175;-68
2023/01/03 06:38:28;;;;;;;16.30;10.40;;;4.70;99.90;;;;;;5055149;28;20162;-68
2023/01/03 06:40:54;;;;;;;19.47;10.67;;;4.70;99.90;;;;;;5054903;28;20686;-68
2023/01/03 06:43:19;;;;;;;17.13;10.83;;;4.70;99.90;;;;;;5055039;28;20174;-68
2023/01/03 06:54:01;;;;;;;17.83;10.60;;;4.90;99.90;;;;;;5055125;28;20308;-68
2023/01/03 06:56:27;;;;;;;17.90;11.20;;;4.90;99.90;;;;;;5054455;28;20655;-68
2023/01/03 06:58:53;;;;;;;14.90;10.23;;;4.90;99.90;;;;;;5054498;28;20571;-68
2023/01/03 07:01:19;;;;;;;17.50;9.83;;;4.90;99.90;;;;;;5054170;28;20241;-68
2023/01/03 07:03:45;;;;;;;13.00;9.23;;;4.90;99.90;;;;;;5036326;28;20170;-68
2023/01/03 07:06:10;;;;;;;14.50;9.47;;;5.00;99.90;;;;;;5054305;28;20177;-68
2023/01/03 07:08:36;;;;;;;11.70;9.43;;;5.10;99.90;;;;;;5035839;28;20270;-69
2023/01/03 07:11:02;;;;;;;11.87;9.57;;;5.20;99.90;;;;;;5036160;28;20256;-68
2023/01/03 07:16:13;;;;;;;13.30;8.67;;;5.30;99.90;;;;;;5054167;28;20180;-68
2023/01/03 07:18:39;;;;;;;14.73;9.20;;;5.40;99.90;;;;;;5036150;28;20651;-68
2023/01/03 07:21:06;;;;;;;12.83;8.40;;;5.40;99.90;;;;;;5053918;28;20217;-68
2023/01/03 07:23:32;;;;;;;13.73;8.90;;;5.50;99.90;;;;;;5036148;28;20193;-68
2023/01/03 07:25:58;;;;;;;12.70;8.43;;;5.50;99.90;;;;;;5035978;28;20675;-68
2023/01/03 07:28:24;;;;;;;9.50;7.83;;;5.50;99.90;;;;;;5036078;28;20698;-68
2023/01/03 07:30:49;;;;;;;15.37;7.93;;;5.50;99.90;;;;;;5035501;28;20217;-68
2023/01/03 07:33:16;;;;;;;10.03;7.80;;;5.60;99.90;;;;;;5054092;28;20170;-68
2023/01/03 07:35:43;;;;;;;11.00;7.47;;;5.60;99.90;;;;;;5054101;28;20179;-68
2023/01/03 07:38:10;;;;;;;10.47;7.17;;;5.60;99.90;;;;;;5036095;28;20181;-68
2023/01/03 07:40:36;;;;;;;12.67;7.63;;;5.60;99.90;;;;;;5035787;28;20218;-68
2023/01/03 07:45:46;;;;;;;10.87;7.47;;;5.70;99.90;;;;;;5053905;28;20634;-68
2023/01/03 07:48:13;;;;;;;13.87;7.57;;;5.70;99.90;;;;;;5053876;28;20174;-68
2023/01/03 07:50:40;;;;;;;12.67;8.10;;;5.70;99.90;;;;;;5035787;28;20201;-68
2023/01/03 07:53:07;;;;;;;10.50;6.83;;;5.80;99.90;;;;;;5053724;28;20542;-68
2023/01/03 07:55:34;;;;;;;8.53;7.53;;;5.80;99.90;;;;;;5053450;28;20197;-68
2023/01/03 07:58:00;;;;;;;17.60;10.50;;;5.80;99.90;;;;;;5053445;28;20172;-68
2023/01/03 08:00:26;;;;;;;17.77;10.57;;;5.80;99.90;;;;;;5053201;28;20217;-69
2023/01/03 08:02:53;;;;;;;16.27;10.80;;;5.70;99.90;;;;;;5053512;28;20178;-69
2023/01/03 08:05:19;;;;;;;14.30;10.73;;;5.70;99.90;;;;;;5054001;28;20166;-70
2023/01/03 08:07:47;;;;;;;12.57;9.70;;;5.70;99.90;;;;;;5035624;28;20191;-70
2023/01/03 08:13:16;;;;;;;20.47;12.63;;;5.70;99.90;;;;;;5055641;28;20641;-71
2023/01/03 08:15:43;;;;;;;18.37;12.07;;;5.70;99.90;;;;;;5052864;28;20174;-70
2023/01/03 08:18:10;;;;;;;21.10;12.83;;;5.70;99.90;;;;;;5053500;28;20563;-71
2023/01/03 08:20:36;;;;;;;14.37;11.13;;;5.70;99.90;;;;;;5054192;28;20202;-72
2023/01/03 08:23:02;;;;;;;15.10;10.90;;;5.70;99.90;;;;;;5039680;28;20178;-70
2023/01/03 08:25:28;;;;;;;14.30;10.50;;;5.80;99.90;;;;;;5057687;28;20696;-72
2023/01/03 08:27:58;;;;;;;14.27;10.83;;;5.80;99.90;;;;;;5039602;28;20209;-71
2023/01/03 08:30:24;;;;;;;17.37;11.77;;;5.70;99.90;;;;;;5057079;28;20209;-72
2023/01/03 08:32:52;;;;;;;14.30;10.87;;;5.80;99.90;;;;;;5057393;28;20546;-71
2023/01/03 08:35:19;;;;;;;12.63;10.00;;;5.70;99.90;;;;;;5038998;28;20247;-72
2023/01/03 08:37:46;;;;;;;17.23;11.53;;;5.70;99.90;;;;;;5057101;28;20186;-71
2023/01/03 08:40:14;;;;;;;14.37;10.90;;;5.70;99.90;;;;;;5055329;28;20214;-70
2023/01/03 08:42:40;;;;;;;13.40;9.50;;;5.70;99.90;;;;;;5056730;28;20225;-70
2023/01/03 08:45:12;;;;;;;11.53;9.20;;;5.70;99.90;;;;;;5056641;28;20635;-68
2023/01/03 08:47:38;;;;;;;9.93;8.90;;;5.70;99.90;;;;;;5057407;28;20154;-70
2023/01/03 08:50:04;;;;;;;13.00;9.63;;;5.60;99.90;;;;;;5056632;28;20195;-70
2023/01/03 08:52:30;;;;;;;13.43;10.00;;;5.60;99.90;;;;;;5038739;28;20171;-70
2023/01/03 08:54:56;;;;;;;12.07;9.03;;;5.60;99.90;;;;;;5056735;28;20657;-70
2023/01/03 08:57:22;;;;;;;10.90;9.47;;;5.60;99.90;;;;;;5039467;28;20232;-68
2023/01/03 08:59:47;;;;;;;13.33;10.20;;;5.60;99.90;;;;;;5057000;28;20245;-68
2023/01/03 09:02:13;;;;;;;12.90;9.10;;;5.60;99.90;;;;;;5056923;28;20596;-68
2023/01/03 09:04:39;;;;;;;15.07;9.80;;;5.70;99.90;;;;;;5056657;28;20175;-68
2023/01/03 09:07:05;;;;;;;13.60;8.93;;;5.70;99.90;;;;;;5056801;28;20178;-68
2023/01/03 09:09:31;;;;;;;10.63;7.70;;;5.80;99.90;;;;;;5056133;28;20679;-68
2023/01/03 09:11:56;;;;;;;10.33;7.63;;;5.90;99.90;;;;;;5056924;28;20285;-68
2023/01/03 09:14:23;;;;;;;10.13;7.17;;;6.00;99.90;;;;;;5056506;28;20185;-68
2023/01/03 09:16:49;;;;;;;9.33;6.87;;;6.20;99.90;;;;;;5039177;28;20269;-68
2023/01/03 09:19:14;;;;;;;10.93;7.10;;;6.30;99.90;;;;;;5039474;28;20209;-68
2023/01/03 09:21:40;;;;;;;8.10;6.40;;;6.50;99.90;;;;;;5041262;28;20178;-69
2023/01/03 09:24:06;;;;;;;6.97;5.90;;;6.70;99.90;;;;;;5058108;28;20564;-69
2023/01/03 09:26:32;;;;;;;13.27;7.00;;;6.80;99.90;;;;;;5057667;28;20549;-69
2023/01/03 09:28:57;;;;;;;7.07;6.03;;;7.00;99.90;;;;;;5058001;28;20182;-72
2023/01/03 09:31:23;;;;;;;6.07;5.17;;;7.10;99.90;;;;;;5058145;28;20269;-71
2023/01/03 09:33:49;;;;;;;5.73;5.23;;;7.20;99.90;;;;;;5057891;28;20232;-71
2023/01/03 09:36:15;;;;;;;7.17;5.63;;;7.30;99.90;;;;;;5039761;28;20311;-71
2023/01/03 09:38:40;;;;;;;5.43;4.93;;;7.40;99.90;;;;;;5039331;28;20649;-70
2023/01/03 09:41:11;;;;;;;7.20;5.63;;;7.50;99.90;;;;;;5056982;28;20624;-71
2023/01/03 09:43:44;;;;;;;7.07;5.50;;;7.50;99.90;;;;;;5056528;28;20625;-70
2023/01/03 09:46:20;;;;;;;10.10;5.23;;;7.60;99.90;;;;;;5038834;28;20174;-70
2023/01/03 09:48:47;;;;;;;7.33;5.37;;;7.60;99.90;;;;;;5058434;28;20167;-70
2023/01/03 10:06:30;;;;;;;5.97;4.90;;;8.30;99.90;;;;;;5056159;28;20161;-73
2023/01/03 10:09:12;;;;;;;6.27;4.97;;;8.20;99.90;;;;;;5037766;28;20287;-70
2023/01/03 10:11:47;;;;;;;6.07;4.50;;;8.20;99.90;;;;;;5055226;28;20212;-69
2023/01/03 10:14:15;;;;;;;6.00;4.87;;;8.10;99.90;;;;;;5056532;28;20169;-69
2023/01/03 10:17:02;;;;;;;6.53;4.73;;;8.10;99.90;;;;;;5055663;28;20182;-69
2023/01/03 10:19:58;;;;;;;8.97;5.80;;;8.00;99.90;;;;;;5055552;28;20260;-67
2023/01/03 10:22:26;;;;;;;5.33;4.83;;;7.90;99.90;;;;;;5037438;28;20204;-67
2023/01/03 10:25:01;;;;;;;5.83;5.07;;;8.00;99.90;;;;;;5055228;28;20174;-68
2023/01/03 10:27:30;;;;;;;6.07;5.10;;;8.00;99.90;;;;;;5037326;28;20166;-67
2023/01/03 10:30:00;;;;;;;5.73;5.20;;;8.00;99.90;;;;;;5054848;28;20190;-67
2023/01/03 10:32:38;;;;;;;8.33;5.40;;;8.00;99.90;;;;;;5055538;28;20544;-67
2023/01/03 10:35:14;;;;;;;7.43;5.43;;;8.00;99.90;;;;;;5055817;28;20166;-69
2023/01/03 10:37:40;;;;;;;6.90;5.40;;;7.90;99.90;;;;;;5037779;28;20171;-70
2023/01/03 10:40:07;;;;;;;6.93;4.90;;;7.90;99.90;;;;;;5037057;28;20625;-69
2023/01/03 10:42:35;;;;;;;7.60;5.33;;;7.90;99.90;;;;;;5053472;28;20174;-70
2023/01/03 10:45:21;;;;;;;7.50;5.17;;;7.80;99.90;;;;;;5036225;28;20173;-70
2023/01/03 10:48:00;;;;;;;7.23;5.30;;;7.90;99.90;;;;;;5053517;28;20193;-70
2023/01/03 10:50:27;;;;;;;7.33;5.07;;;8.00;99.90;;;;;;5036420;28;20236;-69
2023/01/03 10:53:05;;;;;;;5.13;4.67;;;8.30;99.90;;;;;;5054286;28;20179;-69
2023/01/03 10:55:33;;;;;;;6.90;4.83;;;8.50;99.90;;;;;;5036230;28;20170;-68
2023/01/03 10:58:16;;;;;;;7.50;5.10;;;8.70;99.90;;;;;;5036254;28;20279;-69
2023/01/03 11:00:42;;;;;;;6.77;4.83;;;8.70;99.90;;;;;;5054128;28;20209;-69
2023/01/03 11:03:15;;;;;;;7.03;4.90;;;8.60;99.90;;;;;;5054311;28;20166;-69
2023/01/03 11:05:43;;;;;;;5.07;4.57;;;8.60;99.90;;;;;;5036133;28;20182;-69
2023/01/03 11:08:20;;;;;;;5.47;4.97;;;8.70;99.90;;;;;;5036114;28;20265;-69
2023/01/03 11:10:52;;;;;;;6.83;4.40;;;8.90;99.90;;;;;;5053834;28;20210;-69
2023/01/03 11:13:29;;;;;;;5.07;4.57;;;9.10;99.90;;;;;;5054259;28;20174;-69
2023/01/03 11:15:58;;;;;;;4.67;4.17;;;9.10;99.90;;;;;;5054306;28;20150;-69
2023/01/03 11:18:27;;;;;;;8.00;4.73;;;9.10;99.90;;;;;;5053866;28;20185;-69
2023/01/03 11:21:15;;;;;;;5.40;4.90;;;9.00;99.90;;;;;;5053662;28;20757;-68
2023/01/03 11:24:11;;;;;;;4.63;4.23;;;9.00;99.90;;;;;;5054207;28;20171;-69
2023/01/03 11:26:48;;;;;;;6.30;4.80;;;9.10;99.90;;;;;;5053871;28;20615;-69
2023/01/03 11:29:49;;;;;;;6.57;4.63;;;9.20;99.90;;;;;;5036162;28;20170;-68
2023/01/03 11:32:17;;;;;;;6.77;4.87;;;9.20;99.90;;;;;;5032115;28;20681;-69
2023/01/03 11:35:18;;;;;;;5.30;4.80;;;9.40;99.90;;;;;;5053748;28;20178;-68
2023/01/03 11:37:59;;;;;;;5.07;4.20;;;9.20;99.90;;;;;;5035684;28;20646;-69
2023/01/03 11:41:12;;;;;;;6.67;4.77;;;9.10;99.90;;;;;;5053260;28;20204;-69
2023/01/03 11:44:22;;;;;;;5.03;4.53;;;8.90;99.90;;;;;;4978584;28;20628;-69
2023/01/03 11:47:22;;;;;;;6.20;4.50;;;8.90;99.90;;;;;;5005553;28;20674;-69
2023/01/03 11:49:53;;;;;;;5.87;4.70;;;8.90;99.90;;;;;;5053431;28;20197;-69
2023/01/03 11:52:32;;;;;;;4.70;4.30;;;9.00;99.90;;;;;;5053292;28;20197;-68
2023/01/03 11:55:52;;;;;;;9.23;4.40;;;8.90;99.90;;;;;;5053220;28;20162;-69
2023/01/03 11:58:39;;;;;;;6.13;5.23;;;8.90;99.90;;;;;;4953864;29;20268;-68
2023/01/03 12:01:10;;;;;;;8.30;4.67;;;9.00;99.90;;;;;;5047170;28;20588;-68
2023/01/03 12:04:17;;;;;;;9.70;4.67;;;9.00;99.90;;;;;;5053973;28;20159;-68
2023/01/03 12:06:58;;;;;;;6.07;4.27;;;9.10;99.90;;;;;;4954100;29;20182;-68
2023/01/03 12:09:43;;;;;;;6.30;4.30;;;9.40;99.90;;;;;;4953401;28;20312;-68
2023/01/03 12:12:31;;;;;;;5.63;4.67;;;9.30;99.90;;;;;;5009089;28;20526;-67
2023/01/03 12:15:10;;;;;;;4.63;4.10;;;9.30;99.90;;;;;;5035673;28;20178;-68
2023/01/03 12:18:19;;;;;;;5.40;4.07;;;9.20;99.90;;;;;;5054050;28;20170;-67
2023/01/03 12:20:53;;;;;;;5.50;4.03;;;9.10;99.90;;;;;;5045525;28;20222;-68
2023/01/03 12:23:51;;;;;;;6.53;4.17;;;9.10;99.90;;;;;;5053593;28;20242;-68
2023/01/03 12:26:17;;;;;;;7.40;4.30;;;9.10;99.90;;;;;;4998358;28;20195;-68
2023/01/03 12:29:10;;;;;;;8.93;4.13;;;9.10;99.90;;;;;;5053162;28;20187;-67
2023/01/03 12:31:48;;;;;;;8.50;5.67;;;9.10;99.90;;;;;;5053360;28;20206;-69
2023/01/03 12:35:00;;;;;;;6.23;4.47;;;9.20;99.90;;;;;;5052966;28;20607;-69
2023/01/03 12:37:29;;;;;;;9.33;5.00;;;9.20;99.90;;;;;;5015156;28;20189;-69
2023/01/03 12:40:07;;;;;;;4.80;4.30;;;9.20;99.90;;;;;;5052763;28;20209;-69
2023/01/03 12:42:48;;;;;;;4.77;4.23;;;9.30;99.90;;;;;;5053211;28;20163;-69
2023/01/03 12:45:25;;;;;;;5.70;4.43;;;9.30;99.90;;;;;;5053561;28;20514;-67
2023/01/03 12:48:13;;;;;;;6.47;4.90;;;9.40;99.90;;;;;;5053374;28;20575;-67
2023/01/03 12:50:51;;;;;;;6.70;4.27;;;9.50;99.90;;;;;;5053628;28;20698;-67
2023/01/03 12:53:34;;;;;;;8.60;4.27;;;9.60;99.90;;;;;;5053546;28;20529;-67
2023/01/03 12:56:25;;;;;;;6.07;4.17;;;9.70;99.90;;;;;;5053132;28;20173;-67
2023/01/03 12:59:15;;;;;;;4.60;4.20;;;9.70;99.90;;;;;;5052978;28;20174;-67
2023/01/03 13:01:57;;;;;;;4.90;3.83;;;9.80;99.90;;;;;;5053071;28;20190;-67
2023/01/03 13:04:36;;;;;;;5.10;4.10;;;9.80;99.90;;;;;;5053052;28;20151;-69
2023/01/03 13:07:11;;;;;;;6.47;4.53;;;9.80;99.90;;;;;;5035876;28;20179;-69
2023/01/03 13:09:42;;;;;;;7.97;4.30;;;9.80;99.90;;;;;;5038503;28;20209;-70
2023/01/03 13:12:16;;;;;;;5.23;4.20;;;9.80;99.90;;;;;;5038767;28;20597;-70
2023/01/03 13:15:02;;;;;;;6.77;4.30;;;9.80;99.90;;;;;;5039031;28;20263;-67
2023/01/03 13:17:45;;;;;;;4.27;3.87;;;9.80;99.90;;;;;;5038635;28;20198;-67
2023/01/03 13:20:13;;;;;;;5.40;4.30;;;9.70;99.90;;;;;;5055997;28;20676;-67
2023/01/03 13:22:48;;;;;;;5.50;4.10;;;9.60;99.90;;;;;;5056086;28;20174;-67
2023/01/03 13:25:30;;;;;;;4.60;4.10;;;9.50;99.90;;;;;;5056092;28;20165;-67
2023/01/03 13:28:18;;;;;;;5.60;3.67;;;9.50;99.90;;;;;;5056495;28;20616;-67
2023/01/03 13:30:43;;;;;;;5.60;4.13;;;9.50;99.90;;;;;;5038574;28;20305;-68
2023/01/03 13:33:09;;;;;;;5.50;4.00;;;9.50;99.90;;;;;;5056255;28;20189;-68
2023/01/03 13:35:51;;;;;;;5.30;4.17;;;9.50;99.90;;;;;;5037895;28;20170;-67
2023/01/03 13:38:24;;;;;;;4.60;4.20;;;9.50;99.90;;;;;;5037866;28;20177;-67
2023/01/03 13:40:52;;;;;;;5.07;4.43;;;9.40;99.90;;;;;;5055551;28;20285;-67
2023/01/03 13:43:33;;;;;;;8.97;4.80;;;9.40;99.90;;;;;;5055778;28;20266;-67
2023/01/03 13:46:27;;;;;;;7.77;5.20;;;9.40;99.90;;;;;;5037654;28;20175;-67
2023/01/03 13:49:02;;;;;;;5.17;4.67;;;9.40;99.90;;;;;;5044930;28;20332;-67
2023/01/03 13:51:55;;;;;;;7.23;5.03;;;9.40;99.90;;;;;;5055574;28;20166;-68
2023/01/03 13:54:21;;;;;;;6.23;4.53;;;9.40;99.90;;;;;;5050711;28;20187;-69
2023/01/03 13:56:47;;;;;;;6.43;4.90;;;9.40;99.90;;;;;;5055244;28;20542;-69
2023/01/03 13:59:23;;;;;;;5.13;4.30;;;9.30;99.90;;;;;;5055852;28;20177;-69
2023/01/03 14:02:11;;;;;;;6.53;4.50;;;9.30;99.90;;;;;;5055322;28;20182;-69
2023/01/03 14:05:00;;;;;;;5.07;4.07;;;9.30;99.90;;;;;;5055294;28;20178;-69
2023/01/03 14:07:44;;;;;;;7.97;4.90;;;9.30;99.90;;;;;;5037450;28;20170;-69
2023/01/03 14:10:36;;;;;;;8.93;4.43;;;9.30;99.90;;;;;;5054739;28;20221;-69
2023/01/03 14:13:19;;;;;;;8.60;4.33;;;9.30;99.90;;;;;;5017140;28;20183;-69
2023/01/03 14:15:47;;;;;;;9.50;5.10;;;9.30;99.90;;;;;;5037108;28;20166;-69
2023/01/03 14:18:13;;;;;;;6.30;4.10;;;9.20;99.90;;;;;;5055035;28;20175;-69